Time;durP1;ratioP1;P1;durP2;ratioP2;P2;SDS_P1;SDS_P2;PMS_P1;PMS_P2;Temp;Humidity;BMP_temperature;BMP_pressure;BME280_temperature;BME280_humidity;BME280_pressure;Samples;Min_cycle;Max_cycle;Signal;HPM_P1;HPM_P2
2021/01/30 00:00:07;;;;;;;;;;;;;;;1.98;100.00;91861.97;1059470;56;20151;-84
2021/01/30 00:01:07;;;;;;;;;;;;;;;2.05;100.00;91859.25;1061463;56;20190;-84
2021/01/30 00:02:08;;;;;;;;;;;;;;;2.07;100.00;91856.22;1059446;56;20150;-83
2021/01/30 00:03:10;;;;;;;;;;;;;;;2.10;100.00;91861.44;1056534;56;21908;-83
2021/01/30 00:04:13;;;;;;;;;;;;;;;2.12;100.00;91853.91;1063712;55;20161;-84
2021/01/30 00:05:14;;;;;;;;;;;;;;;2.17;100.00;91861.37;1061311;56;20197;-83
2021/01/30 00:06:14;;;;;;;;;;;;;;;2.07;100.00;91856.22;1061556;55;20193;-85
2021/01/30 00:07:15;;;;;;;;;;;;;;;2.07;100.00;91856.97;1066379;55;20238;-83
2021/01/30 00:08:16;;;;;;;;;;;;;;;2.09;100.00;91853.94;1063777;56;20245;-86
2021/01/30 00:09:17;;;;;;;;;;;;;;;2.22;100.00;91852.28;1063790;56;20162;-86
2021/01/30 00:10:17;;;;;;;;;;;;;;;2.13;100.00;91855.41;1059459;56;20234;-84
2021/01/30 00:11:18;;;;;;;;;;;;;;;2.11;100.00;91859.56;1059611;56;20218;-85
2021/01/30 00:12:18;;;;;;;;;;;;;;;2.05;100.00;91851.34;1059391;56;20181;-85
2021/01/30 00:13:19;;;;;;;;;;;;;;;2.02;100.00;91857.41;1061658;56;20146;-83
2021/01/30 00:14:33;;;;;;;;;;;;;;;1.96;100.00;91861.59;1061439;56;20663;-85
2021/01/30 00:15:33;;;;;;;;;;;;;;;1.85;100.00;91860.97;1060394;56;20224;-85
2021/01/30 00:16:33;;;;;;;;;;;;;;;1.90;100.00;91863.91;1059415;56;20262;-85
2021/01/30 00:17:34;;;;;;;;;;;;;;;1.87;100.00;91862.06;1061494;56;20155;-84
2021/01/30 00:18:34;;;;;;;;;;;;;;;1.79;100.00;91859.88;1063970;56;20149;-83
2021/01/30 00:19:35;;;;;;;;;;;;;;;1.68;100.00;91852.09;1059654;56;20230;-83
2021/01/30 00:20:36;;;;;;;;;;;;;;;1.70;100.00;91858.44;1059550;56;20189;-84
2021/01/30 00:21:37;;;;;;;;;;;;;;;1.65;100.00;91861.50;1061541;56;20178;-83
2021/01/30 00:22:37;;;;;;;;;;;;;;;1.74;100.00;91856.53;1059364;56;20246;-84
2021/01/30 00:23:37;;;;;;;;;;;;;;;1.65;100.00;91853.59;1063944;56;20193;-83
2021/01/30 00:24:44;;;;;;;;;;;;;;;1.69;100.00;91858.84;1063676;56;20192;-83
2021/01/30 00:25:44;;;;;;;;;;;;;;;1.75;100.00;91852.75;1061628;56;20185;-85
2021/01/30 00:26:51;;;;;;;;;;;;;;;1.68;100.00;91860.75;1059469;56;20689;-85
2021/01/30 00:27:52;;;;;;;;;;;;;;;1.62;100.00;91851.75;1057570;56;20178;-85
2021/01/30 00:28:53;;;;;;;;;;;;;;;1.64;100.00;91861.91;1061449;56;20178;-84
2021/01/30 00:29:53;;;;;;;;;;;;;;;1.60;100.00;91859.31;1063681;56;20169;-84
2021/01/30 00:30:53;;;;;;;;;;;;;;;1.60;100.00;91869.84;1059303;56;20256;-84
2021/01/30 00:31:54;;;;;;;;;;;;;;;1.61;100.00;91863.41;1057371;56;20246;-85
2021/01/30 00:32:55;;;;;;;;;;;;;;;1.62;100.00;91866.81;1057366;56;20293;-86
2021/01/30 00:33:55;;;;;;;;;;;;;;;1.70;100.00;91860.34;1057194;56;20163;-84
2021/01/30 00:34:56;;;;;;;;;;;;;;;1.66;100.00;91865.62;1059336;56;20170;-85
2021/01/30 00:35:56;;;;;;;;;;;;;;;1.62;100.00;91864.91;1057344;56;20224;-84
2021/01/30 00:36:57;;;;;;;;;;;;;;;1.64;100.00;91865.28;1057232;56;20163;-85
2021/01/30 00:37:58;;;;;;;;;;;;;;;1.67;100.00;91866.41;1054933;56;20167;-83
2021/01/30 00:38:59;;;;;;;;;;;;;;;1.70;100.00;91871.62;1055009;56;20256;-85
2021/01/30 00:39:59;;;;;;;;;;;;;;;1.69;100.00;91872.03;1059524;56;20155;-84
2021/01/30 00:40:59;;;;;;;;;;;;;;;1.64;100.00;91867.91;1061255;56;20576;-85
2021/01/30 00:42:00;;;;;;;;;;;;;;;1.69;100.00;91867.50;1057239;56;20147;-84
2021/01/30 00:43:00;;;;;;;;;;;;;;;1.81;100.00;91860.25;1057291;56;20143;-85
2021/01/30 00:44:00;;;;;;;;;;;;;;;1.79;100.00;91878.31;1061546;56;20177;-85
2021/01/30 00:45:02;;;;;;;;;;;;;;;1.81;100.00;91879.44;1061448;56;20173;-85
2021/01/30 00:46:02;;;;;;;;;;;;;;;1.72;100.00;91874.63;1059528;56;20611;-84
2021/01/30 00:47:03;;;;;;;;;;;;;;;1.83;100.00;91884.31;1059650;56;20182;-85
2021/01/30 00:48:04;;;;;;;;;;;;;;;1.77;100.00;91874.19;1061747;56;20170;-84
2021/01/30 00:49:04;;;;;;;;;;;;;;;1.77;100.00;91881.34;1059651;56;20154;-84
2021/01/30 00:50:05;;;;;;;;;;;;;;;1.79;100.00;91884.34;1059832;56;20254;-84
2021/01/30 00:51:05;;;;;;;;;;;;;;;1.81;100.00;91881.31;1059734;56;20155;-85
2021/01/30 00:52:05;;;;;;;;;;;;;;;1.74;100.00;91869.69;1059756;56;20165;-88
2021/01/30 00:53:06;;;;;;;;;;;;;;;1.82;100.00;91873.03;1059858;56;20162;-87
2021/01/30 00:54:06;;;;;;;;;;;;;;;1.89;100.00;91870.34;1059599;56;20587;-86
2021/01/30 00:55:07;;;;;;;;;;;;;;;1.80;100.00;91879.81;1059533;56;20151;-85
2021/01/30 00:56:07;;;;;;;;;;;;;;;1.81;100.00;91879.44;1057430;56;20174;-83
2021/01/30 00:57:08;;;;;;;;;;;;;;;1.83;100.00;91879.03;1059675;56;20178;-85
2021/01/30 00:58:08;;;;;;;;;;;;;;;1.79;100.00;91879.06;1061776;56;20265;-85
2021/01/30 00:59:09;;;;;;;;;;;;;;;1.74;100.00;91868.97;1061942;56;21179;-86
2021/01/30 01:00:16;;;;;;;;;;;;;;;1.81;100.00;91876.81;1061695;56;21054;-85
2021/01/30 01:01:17;;;;;;;;;;;;;;;1.90;100.00;91877.09;1061958;56;20161;-84
2021/01/30 01:02:17;;;;;;;;;;;;;;;1.82;100.00;91878.28;1061820;56;20142;-84
2021/01/30 01:03:18;;;;;;;;;;;;;;;1.92;100.00;91876.69;1057655;56;20165;-85
2021/01/30 01:04:19;;;;;;;;;;;;;;;1.98;100.00;91875.87;1057552;56;20237;-85
2021/01/30 01:05:21;;;;;;;;;;;;;;;1.93;100.00;91878.19;1059557;56;20173;-84
2021/01/30 01:06:21;;;;;;;;;;;;;;;1.84;100.00;91877.91;1057585;56;20151;-86
2021/01/30 01:07:21;;;;;;;;;;;;;;;1.82;100.00;91880.19;1059831;56;20181;-84
2021/01/30 01:08:22;;;;;;;;;;;;;;;1.83;100.00;91879.78;1059789;56;20159;-86
2021/01/30 01:09:22;;;;;;;;;;;;;;;1.84;100.00;91880.53;1055519;56;20152;-84
2021/01/30 01:10:23;;;;;;;;;;;;;;;1.82;100.00;91882.81;1055403;56;20155;-85
2021/01/30 01:11:23;;;;;;;;;;;;;;;1.77;100.00;91881.34;1060040;56;20158;-85
2021/01/30 01:12:23;;;;;;;;;;;;;;;1.74;100.00;91877.59;1061954;56;20155;-84
2021/01/30 01:13:24;;;;;;;;;;;;;;;1.71;100.00;91883.66;1060026;56;20158;-84
2021/01/30 01:14:26;;;;;;;;;;;;;;;1.64;100.00;91885.59;1059950;56;20603;-85
2021/01/30 01:15:26;;;;;;;;;;;;;;;1.62;100.00;91880.72;1059710;56;20190;-85
2021/01/30 01:16:26;;;;;;;;;;;;;;;1.63;100.00;91876.22;1061868;56;20151;-86
2021/01/30 01:17:27;;;;;;;;;;;;;;;1.64;100.00;91882.97;1061675;56;20662;-84
2021/01/30 01:18:27;;;;;;;;;;;;;;;1.63;100.00;91873.59;1059919;56;20150;-84
2021/01/30 01:19:27;;;;;;;;;;;;;;;1.58;100.00;91874.75;1057434;56;20166;-86
2021/01/30 01:20:28;;;;;;;;;;;;;;;1.59;100.00;91875.50;1057689;56;20692;-84
2021/01/30 01:21:28;;;;;;;;;;;;;;;1.62;100.00;91875.44;1059697;56;20173;-86
2021/01/30 01:22:28;;;;;;;;;;;;;;;1.63;100.00;91878.84;1059925;56;20176;-84
2021/01/30 01:23:29;;;;;;;;;;;;;;;1.63;100.00;91868.31;1057726;56;20170;-84
2021/01/30 01:24:29;;;;;;;;;;;;;;;1.59;100.00;91878.13;1057651;56;20652;-84
2021/01/30 01:25:30;;;;;;;;;;;;;;;1.59;100.00;91870.22;1059681;56;20963;-85
2021/01/30 01:26:30;;;;;;;;;;;;;;;1.64;100.00;91875.81;1059801;56;20173;-84
2021/01/30 01:27:30;;;;;;;;;;;;;;;1.63;100.00;91868.31;1057624;56;20641;-86
2021/01/30 01:28:31;;;;;;;;;;;;;;;1.66;100.00;91873.53;1057761;56;20565;-85
2021/01/30 01:29:31;;;;;;;;;;;;;;;1.65;100.00;91872.03;1059634;56;20158;-84
2021/01/30 01:30:31;;;;;;;;;;;;;;;1.64;100.00;91878.44;1061936;56;20147;-85
2021/01/30 01:31:32;;;;;;;;;;;;;;;1.65;100.00;91879.94;1061877;56;20142;-85
2021/01/30 01:32:32;;;;;;;;;;;;;;;1.66;100.00;91875.41;1059856;56;20608;-84
2021/01/30 01:33:33;;;;;;;;;;;;;;;1.62;100.00;91878.09;1061891;56;21214;-86
2021/01/30 01:34:33;;;;;;;;;;;;;;;1.58;100.00;91879.25;1059830;56;20215;-84
2021/01/30 01:35:33;;;;;;;;;;;;;;;1.62;100.00;91877.34;1059850;56;20182;-87
2021/01/30 01:36:34;;;;;;;;;;;;;;;1.58;100.00;91879.25;1061975;56;20174;-86
2021/01/30 01:37:34;;;;;;;;;;;;;;;1.59;100.00;91883.41;1062008;56;20186;-86
2021/01/30 01:38:35;;;;;;;;;;;;;;;1.63;100.00;91884.13;1061832;56;20162;-84
2021/01/30 01:39:35;;;;;;;;;;;;;;;1.64;100.00;91882.97;1059922;56;20182;-85
2021/01/30 01:40:37;;;;;;;;;;;;;;;1.65;100.00;91882.56;1059693;56;21101;-84
2021/01/30 01:41:37;;;;;;;;;;;;;;;1.63;100.00;91886.75;1059692;56;20159;-84
2021/01/30 01:42:38;;;;;;;;;;;;;;;1.67;100.00;91872.41;1059824;56;20697;-85
2021/01/30 01:43:38;;;;;;;;;;;;;;;1.66;100.00;91881.44;1062034;56;20224;-86
2021/01/30 01:44:39;;;;;;;;;;;;;;;1.62;100.00;91874.69;1063876;55;20613;-84
2021/01/30 01:45:41;;;;;;;;;;;;;;;1.63;100.00;91868.31;1063960;55;20254;-84
2021/01/30 01:46:41;;;;;;;;;;;;;;;1.67;100.00;91872.41;1059679;56;20629;-84
2021/01/30 01:47:44;;;;;;;;;;;;;;;1.61;100.00;91868.69;1055358;56;20151;-83
2021/01/30 01:48:50;;;;;;;;;;;;;;;1.62;100.00;91864.91;1057798;56;20250;-84
2021/01/30 01:49:52;;;;;;;;;;;;;;;1.55;100.00;91867.63;1059717;56;20158;-84
2021/01/30 01:50:53;;;;;;;;;;;;;;;1.56;100.00;91865.72;1059414;56;20268;-85
2021/01/30 01:52:01;;;;;;;;;;;;;;;1.51;100.00;91865.00;1059809;56;20162;-85
2021/01/30 01:53:05;;;;;;;;;;;;;;;1.42;100.00;91864.72;1062140;56;20174;-86
2021/01/30 01:54:09;;;;;;;;;;;;;;;1.50;100.00;91852.25;1059559;56;20155;-85
2021/01/30 01:55:12;;;;;;;;;;;;;;;1.40;100.00;91859.06;1057499;56;20233;-85
2021/01/30 01:56:18;;;;;;;;;;;;;;;1.42;100.00;91856.81;1059639;56;20193;-84
2021/01/30 01:57:18;;;;;;;;;;;;;;;1.51;100.00;91865.00;1061362;56;20162;-84
2021/01/30 01:58:20;;;;;;;;;;;;;;;1.49;100.00;91861.25;1059780;56;20155;-84
2021/01/30 01:59:21;;;;;;;;;;;;;;;1.52;100.00;91855.97;1059791;56;20257;-86
2021/01/30 02:00:22;;;;;;;;;;;;;;;1.57;100.00;91856.69;1057542;56;20660;-84
2021/01/30 02:01:22;;;;;;;;;;;;;;;1.53;100.00;91848.81;1059593;56;20237;-86
2021/01/30 02:02:23;;;;;;;;;;;;;;;1.56;100.00;91849.94;1059747;56;20646;-84
2021/01/30 02:03:26;;;;;;;;;;;;;;;1.56;100.00;91855.19;1059578;56;20693;-84
2021/01/30 02:04:26;;;;;;;;;;;;;;;1.51;100.00;91843.22;1059653;56;20207;-84
2021/01/30 02:05:28;;;;;;;;;;;;;;;1.50;100.00;91855.63;1057687;56;20177;-84
2021/01/30 02:06:29;;;;;;;;;;;;;;;1.56;100.00;91847.31;1059387;56;20180;-84
2021/01/30 02:07:29;;;;;;;;;;;;;;;1.65;100.00;91847.59;1059610;56;20150;-86
2021/01/30 02:08:30;;;;;;;;;;;;;;;1.57;100.00;91846.16;1059729;56;20182;-86
2021/01/30 02:09:30;;;;;;;;;;;;;;;1.54;100.00;91844.28;1059571;56;20262;-85
2021/01/30 02:10:36;;;;;;;;;;;;;;;1.51;100.00;91849.22;1057351;56;20163;-85
2021/01/30 02:11:37;;;;;;;;;;;;;;;1.50;100.00;91849.62;1059367;56;20244;-86
2021/01/30 02:12:38;;;;;;;;;;;;;;;1.50;100.00;91850.38;1059832;56;20263;-86
2021/01/30 02:13:41;;;;;;;;;;;;;;;1.59;100.00;91851.78;1059545;56;20229;-85
2021/01/30 02:14:43;;;;;;;;;;;;;;;1.57;100.00;91843.53;1055443;56;20195;-83
2021/01/30 02:15:45;;;;;;;;;;;;;;;1.67;100.00;91845.34;1059732;56;20341;-84
2021/01/30 02:16:48;;;;;;;;;;;;;;;1.65;100.00;91848.34;1061759;56;20167;-85
2021/01/30 02:18:06;;;;;;;;;;;;;;;1.76;100.00;91848.25;1059702;56;20173;-86
2021/01/30 02:19:27;;;;;;;;;;;;;;;1.74;100.00;91845.25;1058805;56;20703;-84
2021/01/30 02:20:56;;;;;;;;;;;;;;;1.73;100.00;91836.59;1051548;56;20164;-84
2021/01/30 02:21:56;;;;;;;;;;;;;;;1.71;100.00;91840.75;1060700;56;20189;-85
2021/01/30 02:23:02;;;;;;;;;;;;;;;1.68;100.00;91844.19;1059272;56;20155;-84
2021/01/30 02:24:03;;;;;;;;;;;;;;;1.71;100.00;91836.25;1057483;56;20182;-85
2021/01/30 02:25:22;;;;;;;;;;;;;;;1.71;100.00;91844.16;1057645;56;20256;-83
2021/01/30 02:26:25;;;;;;;;;;;;;;;1.75;100.00;91836.94;1060287;56;20662;-83
2021/01/30 02:27:43;;;;;;;;;;;;;;;1.77;100.00;91833.94;1057829;56;20204;-85
2021/01/30 02:28:52;;;;;;;;;;;;;;;1.77;100.00;91829.41;1056899;56;20163;-84
2021/01/30 02:30:05;;;;;;;;;;;;;;;1.77;100.00;91828.66;1060219;56;20658;-85
2021/01/30 02:31:08;;;;;;;;;;;;;;;1.76;100.00;91825.28;1061697;56;20177;-85
2021/01/30 02:32:18;;;;;;;;;;;;;;;1.78;100.00;91824.91;1061858;56;20181;-85
2021/01/30 02:33:18;;;;;;;;;;;;;;;1.78;100.00;91838.06;1059549;56;20260;-85
2021/01/30 02:34:25;;;;;;;;;;;;;;;1.73;100.00;91831.34;1055592;56;20675;-85
2021/01/30 02:35:25;;;;;;;;;;;;;;;1.68;100.00;91825.75;1055763;56;20162;-85
2021/01/30 02:36:30;;;;;;;;;;;;;;;1.71;100.00;91833.62;1057605;56;20159;-85
2021/01/30 02:37:45;;;;;;;;;;;;;;;1.80;100.00;91840.28;1057579;56;20159;-83
2021/01/30 02:38:53;;;;;;;;;;;;;;;1.76;100.00;91832.44;1056361;56;20182;-83
2021/01/30 02:39:55;;;;;;;;;;;;;;;1.78;100.00;91830.16;1060107;56;20205;-85
2021/01/30 02:41:00;;;;;;;;;;;;;;;1.79;100.00;91834.28;1061519;56;20641;-86
2021/01/30 02:42:10;;;;;;;;;;;;;;;1.82;100.00;91833.50;1057782;56;20154;-85
2021/01/30 02:43:12;;;;;;;;;;;;;;;1.74;100.00;91835.47;1059882;56;20221;-85
2021/01/30 02:44:14;;;;;;;;;;;;;;;1.68;100.00;91828.38;1061961;56;20154;-84
2021/01/30 02:45:18;;;;;;;;;;;;;;;1.65;100.00;91821.25;1064433;55;20165;-85
2021/01/30 02:46:22;;;;;;;;;;;;;;;1.81;100.00;91821.47;1059438;56;20150;-84
2021/01/30 02:47:25;;;;;;;;;;;;;;;1.76;100.00;91817.38;1058057;56;20186;-85
2021/01/30 02:48:29;;;;;;;;;;;;;;;1.87;100.00;91808.63;1059907;56;20268;-84
2021/01/30 02:49:32;;;;;;;;;;;;;;;1.75;100.00;91815.87;1057757;56;20197;-86
2021/01/30 02:50:35;;;;;;;;;;;;;;;1.71;100.00;91819.69;1059871;56;20166;-84
2021/01/30 02:51:41;;;;;;;;;;;;;;;1.70;100.00;91810.28;1057864;56;20151;-85
2021/01/30 02:52:43;;;;;;;;;;;;;;;1.71;100.00;91814.41;1058097;56;20147;-87
2021/01/30 02:53:47;;;;;;;;;;;;;;;1.70;100.00;91818.19;1057710;56;20695;-85
2021/01/30 02:54:47;;;;;;;;;;;;;;;1.84;100.00;91820.69;1057590;56;20181;-84
2021/01/30 02:55:51;;;;;;;;;;;;;;;1.74;100.00;91811.00;1057804;56;20223;-84
2021/01/30 02:56:54;;;;;;;;;;;;;;;1.74;100.00;91814.37;1057645;56;20592;-86
2021/01/30 02:57:55;;;;;;;;;;;;;;;1.81;100.00;91810.19;1061984;56;20193;-85
2021/01/30 02:58:55;;;;;;;;;;;;;;;1.77;100.00;91803.06;1059701;56;20182;-84
2021/01/30 02:59:59;;;;;;;;;;;;;;;1.72;100.00;91808.03;1057500;56;20162;-84
2021/01/30 03:00:59;;;;;;;;;;;;;;;1.68;100.00;91812.59;1062209;56;20193;-84
2021/01/30 03:02:00;;;;;;;;;;;;;;;1.65;100.00;91814.09;1059951;56;20154;-85
2021/01/30 03:03:00;;;;;;;;;;;;;;;1.64;100.00;91809.97;1059855;56;20260;-85
2021/01/30 03:04:03;;;;;;;;;;;;;;;1.63;100.00;91805.13;1059747;56;20612;-86
2021/01/30 03:05:05;;;;;;;;;;;;;;;1.64;100.00;91804.72;1057942;56;20163;-84
2021/01/30 03:06:15;;;;;;;;;;;;;;;1.70;100.00;91802.38;1061960;56;20158;-83
2021/01/30 03:07:30;;;;;;;;;;;;;;;1.70;100.00;91802.38;1059708;56;20191;-84
2021/01/30 03:08:34;;;;;;;;;;;;;;;1.60;100.00;91795.34;1060095;56;20808;-84
2021/01/30 03:09:51;;;;;;;;;;;;;;;1.54;100.00;91802.16;1059814;56;20173;-84
2021/01/30 03:11:04;;;;;;;;;;;;;;;1.62;100.00;91801.72;1061841;56;20154;-84
2021/01/30 03:12:16;;;;;;;;;;;;;;;1.63;100.00;91799.84;1060357;56;20269;-84
2021/01/30 03:13:27;;;;;;;;;;;;;;;1.59;100.00;91796.50;1060165;56;20177;-85
2021/01/30 03:14:28;;;;;;;;;;;;;;;1.65;100.00;91802.81;1061960;56;20155;-84
2021/01/30 03:15:47;;;;;;;;;;;;;;;1.59;100.00;91793.88;1062170;56;20745;-84
2021/01/30 03:16:48;;;;;;;;;;;;;;;1.60;100.00;91803.25;1059712;56;20154;-84
2021/01/30 03:17:50;;;;;;;;;;;;;;;1.57;100.00;91798.75;1057434;56;20158;-85
2021/01/30 03:18:53;;;;;;;;;;;;;;;1.57;100.00;91801.41;1059914;56;20269;-85
2021/01/30 03:19:55;;;;;;;;;;;;;;;1.54;100.00;91796.91;1062302;56;20206;-84
2021/01/30 03:20:55;;;;;;;;;;;;;;;1.56;100.00;91792.00;1061836;56;20239;-83
2021/01/30 03:22:02;;;;;;;;;;;;;;;1.59;100.00;91801.75;1059883;56;20237;-85
2021/01/30 03:23:02;;;;;;;;;;;;;;;1.51;100.00;91801.06;1059777;56;20659;-84
2021/01/30 03:24:03;;;;;;;;;;;;;;;1.63;100.00;91792.69;1057767;56;20163;-84
2021/01/30 03:25:05;;;;;;;;;;;;;;;1.77;100.00;91799.69;1057936;56;20179;-85
2021/01/30 03:26:07;;;;;;;;;;;;;;;1.71;100.00;91791.47;1057894;56;20180;-86
2021/01/30 03:27:08;;;;;;;;;;;;;;;1.62;100.00;91796.44;1057940;56;20177;-85
2021/01/30 03:28:10;;;;;;;;;;;;;;;1.63;100.00;91795.31;1060042;56;20233;-83
2021/01/30 03:29:14;;;;;;;;;;;;;;;1.68;100.00;91799.41;1059859;56;20159;-85
2021/01/30 03:30:15;;;;;;;;;;;;;;;1.66;100.00;91812.22;1059778;56;20155;-85
2021/01/30 03:31:16;;;;;;;;;;;;;;;1.72;100.00;91798.25;1057984;56;20167;-84
2021/01/30 03:32:18;;;;;;;;;;;;;;;1.73;100.00;91797.09;1057761;56;20186;-83
2021/01/30 03:33:18;;;;;;;;;;;;;;;1.74;100.00;91814.37;1060010;56;20189;-84
2021/01/30 03:34:19;;;;;;;;;;;;;;;1.68;100.00;91800.16;1062073;56;20168;-83
2021/01/30 03:35:20;;;;;;;;;;;;;;;1.85;100.00;91805.66;1062257;56;20746;-85
2021/01/30 03:36:20;;;;;;;;;;;;;;;1.71;100.00;91799.37;1059917;56;20650;-84
2021/01/30 03:37:21;;;;;;;;;;;;;;;1.74;100.00;91800.47;1058016;56;20182;-86
2021/01/30 03:38:21;;;;;;;;;;;;;;;1.73;100.00;91807.63;1057897;56;20559;-85
2021/01/30 03:39:21;;;;;;;;;;;;;;;1.76;100.00;91796.31;1057853;56;20158;-84
2021/01/30 03:40:22;;;;;;;;;;;;;;;1.72;100.00;91800.13;1060024;56;20632;-84
2021/01/30 03:41:23;;;;;;;;;;;;;;;1.76;100.00;91798.22;1059668;56;20190;-85
2021/01/30 03:42:23;;;;;;;;;;;;;;;1.77;100.00;91803.06;1060127;56;20182;-84
2021/01/30 03:43:24;;;;;;;;;;;;;;;1.75;100.00;91796.69;1057733;56;20175;-85
2021/01/30 03:44:24;;;;;;;;;;;;;;;1.79;100.00;91789.50;1059903;56;20257;-83
2021/01/30 03:45:27;;;;;;;;;;;;;;;1.81;99.86;91787.25;1061999;56;20182;-83
2021/01/30 03:46:27;;;;;;;;;;;;;;;1.76;100.00;91780.50;1059341;56;20667;-87
2021/01/30 03:47:27;;;;;;;;;;;;;;;1.76;100.00;91777.87;1059823;56;20242;-84
2021/01/30 03:48:28;;;;;;;;;;;;;;;1.84;98.91;91783.78;1057732;56;20151;-86
2021/01/30 03:49:28;;;;;;;;;;;;;;;1.68;100.00;91780.97;1057735;56;20139;-85
2021/01/30 03:50:29;;;;;;;;;;;;;;;1.69;100.00;91777.19;1057505;56;20158;-83
2021/01/30 03:51:29;;;;;;;;;;;;;;;1.74;99.48;91776.75;1059748;56;20169;-84
2021/01/30 03:52:29;;;;;;;;;;;;;;;1.84;98.41;91773.25;1059903;56;20154;-84
2021/01/30 03:53:30;;;;;;;;;;;;;;;1.90;97.44;91774.34;1059863;56;20202;-83
2021/01/30 03:54:30;;;;;;;;;;;;;;;1.92;97.16;91779.94;1057486;56;20178;-85
2021/01/30 03:55:30;;;;;;;;;;;;;;;1.74;99.00;91780.16;1059769;56;20163;-84
2021/01/30 03:56:31;;;;;;;;;;;;;;;1.68;100.00;91765.19;1059328;56;20769;-86
2021/01/30 03:57:31;;;;;;;;;;;;;;;1.70;100.00;91763.63;1057578;56;20176;-84
2021/01/30 03:58:32;;;;;;;;;;;;;;;1.68;98.96;91770.44;1059952;56;20533;-86
2021/01/30 03:59:33;;;;;;;;;;;;;;;1.62;99.65;91772.00;1059913;56;20181;-85
2021/01/30 04:00:34;;;;;;;;;;;;;;;1.64;100.00;91767.84;1061610;56;20189;-86
2021/01/30 04:01:35;;;;;;;;;;;;;;;1.60;100.00;91774.28;1062096;56;20606;-87
2021/01/30 04:02:35;;;;;;;;;;;;;;;1.60;100.00;91769.03;1062013;56;20248;-85
2021/01/30 04:03:35;;;;;;;;;;;;;;;1.66;99.70;91775.34;1060091;56;20154;-85
2021/01/30 04:04:36;;;;;;;;;;;;;;;1.73;98.48;91770.00;1059829;56;20579;-84
2021/01/30 04:05:36;;;;;;;;;;;;;;;1.65;99.86;91768.59;1060088;56;20204;-83
2021/01/30 04:06:36;;;;;;;;;;;;;;;1.55;100.00;91762.28;1059671;56;20233;-84
2021/01/30 04:07:37;;;;;;;;;;;;;;;1.55;100.00;91764.19;1059798;56;20177;-85
2021/01/30 04:08:38;;;;;;;;;;;;;;;1.60;100.00;91766.38;1059799;56;20206;-85
2021/01/30 04:09:39;;;;;;;;;;;;;;;1.80;97.94;91759.41;1057196;56;20150;-84
2021/01/30 04:10:39;;;;;;;;;;;;;;;1.82;98.10;91759.75;1059450;56;20282;-85
2021/01/30 04:11:41;;;;;;;;;;;;;;;1.79;98.37;91751.88;1059551;56;20147;-85
2021/01/30 04:12:41;;;;;;;;;;;;;;;1.86;98.04;91752.56;1059484;56;20177;-84
2021/01/30 04:13:42;;;;;;;;;;;;;;;1.88;98.48;91757.41;1061674;56;20681;-85
2021/01/30 04:14:42;;;;;;;;;;;;;;;1.83;97.48;91753.34;1061538;56;20192;-85
2021/01/30 04:15:43;;;;;;;;;;;;;;;1.74;98.83;91763.59;1061664;56;20725;-84
2021/01/30 04:16:43;;;;;;;;;;;;;;;1.65;100.00;91745.63;1057531;56;20606;-85
2021/01/30 04:17:44;;;;;;;;;;;;;;;1.61;100.00;91759.97;1055198;56;20241;-85
2021/01/30 04:18:44;;;;;;;;;;;;;;;1.63;100.00;91755.81;1055619;56;20649;-86
2021/01/30 04:19:45;;;;;;;;;;;;;;;1.66;100.00;91762.19;1057655;56;20194;-84
2021/01/30 04:20:45;;;;;;;;;;;;;;;1.67;99.68;91755.78;1062226;56;20630;-85
2021/01/30 04:21:45;;;;;;;;;;;;;;;1.61;100.00;91750.19;1062258;56;20150;-84
2021/01/30 04:22:46;;;;;;;;;;;;;;;1.58;99.91;91743.09;1060269;56;20170;-85
2021/01/30 04:23:47;;;;;;;;;;;;;;;1.63;100.00;91741.91;1060155;56;20150;-84
2021/01/30 04:24:47;;;;;;;;;;;;;;;1.68;100.00;91744.09;1060333;56;20154;-84
2021/01/30 04:25:48;;;;;;;;;;;;;;;1.68;100.00;91752.00;1062256;56;20228;-83
2021/01/30 04:26:49;;;;;;;;;;;;;;;1.67;99.90;91746.00;1062400;56;20154;-84
2021/01/30 04:27:49;;;;;;;;;;;;;;;1.60;100.00;91747.94;1062371;56;20185;-84
2021/01/30 04:28:51;;;;;;;;;;;;;;;1.59;100.00;91743.84;1062143;56;20571;-83
2021/01/30 04:29:51;;;;;;;;;;;;;;;1.51;100.00;91746.53;1059999;56;20177;-87
2021/01/30 04:30:52;;;;;;;;;;;;;;;1.58;100.00;91744.94;1059799;56;20662;-84
2021/01/30 04:31:56;;;;;;;;;;;;;;;1.62;100.00;91743.78;1060061;56;20907;-84
2021/01/30 04:32:57;;;;;;;;;;;;;;;1.59;100.00;91738.56;1060073;56;20189;-84
2021/01/30 04:33:57;;;;;;;;;;;;;;;1.67;99.97;91740.00;1062144;56;20256;-84
2021/01/30 04:34:58;;;;;;;;;;;;;;;1.58;100.00;91740.47;1059864;56;20170;-85
2021/01/30 04:35:58;;;;;;;;;;;;;;;1.61;100.00;91744.19;1057728;56;20147;-85
2021/01/30 04:36:58;;;;;;;;;;;;;;;1.66;100.00;91743.75;1059925;56;20154;-85
2021/01/30 04:37:59;;;;;;;;;;;;;;;1.59;100.00;91736.69;1059926;56;20150;-83
2021/01/30 04:39:00;;;;;;;;;;;;;;;1.54;100.00;91731.06;1057656;56;20265;-85
2021/01/30 04:40:00;;;;;;;;;;;;;;;1.49;100.00;91730.38;1060083;56;20151;-84
2021/01/30 04:41:05;;;;;;;;;;;;;;;1.59;100.00;91731.41;1061939;56;20158;-85
2021/01/30 04:42:11;;;;;;;;;;;;;;;1.60;100.00;91729.53;1059713;56;20166;-85
2021/01/30 04:43:11;;;;;;;;;;;;;;;1.64;100.00;91730.22;1055762;56;20202;-85
2021/01/30 04:44:16;;;;;;;;;;;;;;;1.66;99.89;91727.94;1059784;56;20154;-83
2021/01/30 04:45:36;;;;;;;;;;;;;;;1.72;98.89;91727.12;1059981;56;20182;-84
2021/01/30 04:46:42;;;;;;;;;;;;;;;1.67;100.00;91729.44;1060198;56;20151;-84
2021/01/30 04:47:45;;;;;;;;;;;;;;;1.73;99.51;91728.63;1057840;56;20147;-83
2021/01/30 04:48:52;;;;;;;;;;;;;;;1.65;100.00;91731.72;1058088;56;20595;-84
2021/01/30 04:50:07;;;;;;;;;;;;;;;1.74;100.00;91719.56;1060096;56;20679;-86
2021/01/30 04:51:11;;;;;;;;;;;;;;;1.72;99.55;91726.38;1058069;56;20146;-84
2021/01/30 04:52:35;;;;;;;;;;;;;;;1.72;99.92;91715.84;1055895;56;20310;-83
2021/01/30 04:53:38;;;;;;;;;;;;;;;1.70;100.00;91724.13;1059330;56;20181;-84
2021/01/30 04:54:49;;;;;;;;;;;;;;;1.70;100.00;91716.22;1059786;56;20724;-85
2021/01/30 04:55:55;;;;;;;;;;;;;;;1.71;100.00;91724.88;1062754;56;20717;-84
2021/01/30 04:57:05;;;;;;;;;;;;;;;1.62;100.00;91727.22;1062037;56;20643;-84
2021/01/30 04:58:05;;;;;;;;;;;;;;;1.74;100.00;91709.03;1060178;56;20686;-84
2021/01/30 04:59:16;;;;;;;;;;;;;;;1.73;100.00;91712.06;1057910;56;20206;-85
2021/01/30 05:00:32;;;;;;;;;;;;;;;1.71;100.00;91714.34;1060783;56;20182;-86
2021/01/30 05:01:35;;;;;;;;;;;;;;;1.71;99.99;91706.44;1061898;56;20640;-84
2021/01/30 05:02:42;;;;;;;;;;;;;;;1.69;100.00;91706.84;1060076;56;20629;-85
2021/01/30 05:03:52;;;;;;;;;;;;;;;1.76;100.00;91716.56;1060252;56;20253;-83
2021/01/30 05:04:54;;;;;;;;;;;;;;;1.66;100.00;91710.25;1062449;56;20669;-85
2021/01/30 05:05:57;;;;;;;;;;;;;;;1.69;100.00;91712.09;1061664;56;20236;-84
2021/01/30 05:06:57;;;;;;;;;;;;;;;1.78;99.81;91703.72;1059959;56;20185;-86
2021/01/30 05:08:30;;;;;;;;;;;;;;;1.79;99.95;91704.47;1059912;56;20211;-85
2021/01/30 05:09:36;;;;;;;;;;;;;;;1.82;99.67;91701.78;1052044;56;20176;-84
2021/01/30 05:10:41;;;;;;;;;;;;;;;1.80;98.98;91696.19;1058906;56;20159;-85
2021/01/30 05:11:53;;;;;;;;;;;;;;;1.85;98.75;91701.00;1062198;56;20582;-84
2021/01/30 05:12:57;;;;;;;;;;;;;;;1.75;98.68;91704.50;1059385;56;20155;-85
2021/01/30 05:14:02;;;;;;;;;;;;;;;1.71;100.00;91704.56;1057896;56;20154;-85
2021/01/30 05:15:12;;;;;;;;;;;;;;;1.75;99.82;91689.44;1062203;56;20189;-84
2021/01/30 05:16:25;;;;;;;;;;;;;;;1.69;99.60;91693.66;1059356;56;20197;-83
2021/01/30 05:17:33;;;;;;;;;;;;;;;1.67;100.00;91685.44;1058636;56;20731;-83
2021/01/30 05:18:37;;;;;;;;;;;;;;;1.63;100.00;91695.25;1062370;55;20169;-84
2021/01/30 05:19:42;;;;;;;;;;;;;;;1.74;99.47;91692.47;1063872;55;20154;-85
2021/01/30 05:21:06;;;;;;;;;;;;;;;1.72;98.57;91695.53;1061909;56;20645;-86
2021/01/30 05:22:08;;;;;;;;;;;;;;;1.67;98.90;91693.31;1054179;56;20194;-84
2021/01/30 05:23:11;;;;;;;;;;;;;;;1.66;99.78;91694.44;1061372;56;20272;-85
2021/01/30 05:24:13;;;;;;;;;;;;;;;1.68;98.80;91694.06;1061863;56;20146;-84
2021/01/30 05:25:16;;;;;;;;;;;;;;;1.78;97.91;91693.19;1057947;56;21201;-85
2021/01/30 05:26:28;;;;;;;;;;;;;;;1.78;96.55;91693.19;1060139;56;20162;-86
2021/01/30 05:27:46;;;;;;;;;;;;;;;1.70;98.45;91689.88;1059619;56;20674;-85